sensor_id;sensor_type;location;lat;lon;timestamp;P1;durP1;ratioP1;P2;durP2;ratioP2
48268;SDS011;34088;52.232;5.196;2022-11-15T00:01:54;61.80;;;31.30;;
48268;SDS011;34088;52.232;5.196;2022-11-15T00:04:21;56.10;;;30.98;;
48268;SDS011;34088;52.232;5.196;2022-11-15T00:06:47;62.10;;;31.83;;
48268;SDS011;34088;52.232;5.196;2022-11-15T00:09:12;62.38;;;32.20;;
48268;SDS011;34088;52.232;5.196;2022-11-15T00:14:04;60.63;;;30.25;;
48268;SDS011;34088;52.232;5.196;2022-11-15T00:16:29;65.63;;;32.17;;
48268;SDS011;34088;52.232;5.196;2022-11-15T00:18:55;65.13;;;32.67;;
48268;SDS011;34088;52.232;5.196;2022-11-15T00:33:26;77.13;;;33.17;;
48268;SDS011;34088;52.232;5.196;2022-11-15T00:35:52;75.03;;;32.78;;
48268;SDS011;34088;52.232;5.196;2022-11-15T00:40:43;71.40;;;31.17;;
48268;SDS011;34088;52.232;5.196;2022-11-15T00:43:09;87.18;;;34.63;;
48268;SDS011;34088;52.232;5.196;2022-11-15T00:45:35;79.75;;;33.42;;
48268;SDS011;34088;52.232;5.196;2022-11-15T00:50:26;83.68;;;32.83;;
48268;SDS011;34088;52.232;5.196;2022-11-15T00:52:52;86.30;;;33.38;;
48268;SDS011;34088;52.232;5.196;2022-11-15T00:55:18;86.32;;;33.88;;
48268;SDS011;34088;52.232;5.196;2022-11-15T00:57:45;96.05;;;36.55;;
48268;SDS011;34088;52.232;5.196;2022-11-15T01:00:12;96.60;;;36.15;;
48268;SDS011;34088;52.232;5.196;2022-11-15T01:02:38;113.43;;;39.20;;
48268;SDS011;34088;52.232;5.196;2022-11-15T01:05:04;93.30;;;35.20;;
48268;SDS011;34088;52.232;5.196;2022-11-15T01:07:30;100.95;;;36.95;;
48268;SDS011;34088;52.232;5.196;2022-11-15T01:09:56;111.90;;;39.67;;
48268;SDS011;34088;52.232;5.196;2022-11-15T01:12:22;113.25;;;38.63;;
48268;SDS011;34088;52.232;5.196;2022-11-15T01:17:14;92.45;;;35.72;;
48268;SDS011;34088;52.232;5.196;2022-11-15T01:19:40;95.43;;;36.28;;
48268;SDS011;34088;52.232;5.196;2022-11-15T01:24:31;95.03;;;35.03;;
48268;SDS011;34088;52.232;5.196;2022-11-15T01:26:57;98.55;;;36.50;;
48268;SDS011;34088;52.232;5.196;2022-11-15T01:31:48;95.50;;;36.65;;
48268;SDS011;34088;52.232;5.196;2022-11-15T01:36:40;98.35;;;37.10;;
48268;SDS011;34088;52.232;5.196;2022-11-15T01:39:07;93.43;;;35.38;;
48268;SDS011;34088;52.232;5.196;2022-11-15T01:41:33;94.65;;;36.30;;
48268;SDS011;34088;52.232;5.196;2022-11-15T01:47:00;102.93;;;38.05;;
48268;SDS011;34088;52.232;5.196;2022-11-15T01:49:30;105.78;;;37.35;;
48268;SDS011;34088;52.232;5.196;2022-11-15T01:51:58;95.20;;;37.50;;
48268;SDS011;34088;52.232;5.196;2022-11-15T01:54:27;103.70;;;38.10;;
48268;SDS011;34088;52.232;5.196;2022-11-15T01:57:01;98.85;;;38.85;;
48268;SDS011;34088;52.232;5.196;2022-11-15T01:59:31;98.57;;;39.10;;
48268;SDS011;34088;52.232;5.196;2022-11-15T02:01:58;97.30;;;38.00;;
48268;SDS011;34088;52.232;5.196;2022-11-15T02:04:25;110.32;;;39.83;;
48268;SDS011;34088;52.232;5.196;2022-11-15T02:06:59;109.00;;;40.38;;
48268;SDS011;34088;52.232;5.196;2022-11-15T02:09:28;96.57;;;40.55;;
48268;SDS011;34088;52.232;5.196;2022-11-15T02:11:54;102.97;;;39.70;;
48268;SDS011;34088;52.232;5.196;2022-11-15T02:14:21;106.38;;;43.22;;
48268;SDS011;34088;52.232;5.196;2022-11-15T02:16:58;98.47;;;40.85;;
48268;SDS011;34088;52.232;5.196;2022-11-15T02:19:47;110.35;;;41.40;;
48268;SDS011;34088;52.232;5.196;2022-11-15T02:34:12;95.50;;;40.03;;
48268;SDS011;34088;52.232;5.196;2022-11-15T02:37:16;103.90;;;41.45;;
48268;SDS011;34088;52.232;5.196;2022-11-15T02:40:08;107.97;;;40.90;;
48268;SDS011;34088;52.232;5.196;2022-11-15T02:42:50;104.65;;;41.22;;
48268;SDS011;34088;52.232;5.196;2022-11-15T02:45:40;103.75;;;40.75;;
48268;SDS011;34088;52.232;5.196;2022-11-15T02:48:11;109.70;;;42.42;;
48268;SDS011;34088;52.232;5.196;2022-11-15T02:50:37;107.28;;;42.35;;
48268;SDS011;34088;52.232;5.196;2022-11-15T02:53:03;105.07;;;40.83;;
48268;SDS011;34088;52.232;5.196;2022-11-15T02:55:36;112.68;;;43.00;;
48268;SDS011;34088;52.232;5.196;2022-11-15T02:58:07;113.15;;;45.30;;
48268;SDS011;34088;52.232;5.196;2022-11-15T03:00:54;123.05;;;45.72;;
48268;SDS011;34088;52.232;5.196;2022-11-15T03:11:29;122.78;;;46.25;;
48268;SDS011;34088;52.232;5.196;2022-11-15T03:14:06;126.63;;;46.28;;
48268;SDS011;34088;52.232;5.196;2022-11-15T03:20:05;126.15;;;46.22;;
48268;SDS011;34088;52.232;5.196;2022-11-15T03:22:36;126.43;;;46.28;;
48268;SDS011;34088;52.232;5.196;2022-11-15T03:25:07;139.77;;;46.22;;
48268;SDS011;34088;52.232;5.196;2022-11-15T03:27:36;131.13;;;47.15;;
48268;SDS011;34088;52.232;5.196;2022-11-15T03:30:06;127.80;;;46.15;;
48268;SDS011;34088;52.232;5.196;2022-11-15T03:32:34;136.25;;;48.53;;
48268;SDS011;34088;52.232;5.196;2022-11-15T03:37:36;150.25;;;49.90;;
48268;SDS011;34088;52.232;5.196;2022-11-15T03:40:34;143.05;;;48.92;;
48268;SDS011;34088;52.232;5.196;2022-11-15T03:43:22;123.97;;;47.35;;
48268;SDS011;34088;52.232;5.196;2022-11-15T03:46:34;131.40;;;47.13;;
48268;SDS011;34088;52.232;5.196;2022-11-15T03:49:17;129.68;;;47.67;;
48268;SDS011;34088;52.232;5.196;2022-11-15T03:51:49;131.38;;;47.90;;
48268;SDS011;34088;52.232;5.196;2022-11-15T03:54:15;135.43;;;48.40;;
48268;SDS011;34088;52.232;5.196;2022-11-15T03:56:41;123.80;;;45.63;;
48268;SDS011;34088;52.232;5.196;2022-11-15T03:59:07;140.50;;;50.00;;
48268;SDS011;34088;52.232;5.196;2022-11-15T04:01:32;128.18;;;47.72;;
48268;SDS011;34088;52.232;5.196;2022-11-15T04:03:58;122.28;;;47.70;;
48268;SDS011;34088;52.232;5.196;2022-11-15T04:06:24;113.10;;;45.78;;
48268;SDS011;34088;52.232;5.196;2022-11-15T04:08:49;109.03;;;44.47;;
48268;SDS011;34088;52.232;5.196;2022-11-15T04:11:15;127.53;;;47.80;;
48268;SDS011;34088;52.232;5.196;2022-11-15T04:13:41;122.75;;;46.63;;
48268;SDS011;34088;52.232;5.196;2022-11-15T04:16:07;109.20;;;45.72;;
48268;SDS011;34088;52.232;5.196;2022-11-15T04:18:32;119.65;;;46.67;;
48268;SDS011;34088;52.232;5.196;2022-11-15T04:20:58;108.32;;;46.75;;
48268;SDS011;34088;52.232;5.196;2022-11-15T04:23:42;101.35;;;44.65;;
48268;SDS011;34088;52.232;5.196;2022-11-15T04:26:31;106.78;;;45.38;;
48268;SDS011;34088;52.232;5.196;2022-11-15T04:28:57;98.63;;;42.60;;
48268;SDS011;34088;52.232;5.196;2022-11-15T04:31:41;94.72;;;43.10;;
48268;SDS011;34088;52.232;5.196;2022-11-15T04:34:07;93.32;;;42.47;;
48268;SDS011;34088;52.232;5.196;2022-11-15T04:36:33;96.80;;;41.78;;
48268;SDS011;34088;52.232;5.196;2022-11-15T04:39:17;86.82;;;40.15;;
48268;SDS011;34088;52.232;5.196;2022-11-15T04:41:42;106.75;;;44.25;;
48268;SDS011;34088;52.232;5.196;2022-11-15T04:44:08;86.18;;;40.72;;
48268;SDS011;34088;52.232;5.196;2022-11-15T04:46:34;89.60;;;40.97;;
48268;SDS011;34088;52.232;5.196;2022-11-15T04:49:00;100.75;;;43.42;;
48268;SDS011;34088;52.232;5.196;2022-11-15T04:51:26;81.60;;;40.38;;
48268;SDS011;34088;52.232;5.196;2022-11-15T04:53:51;88.63;;;41.08;;
48268;SDS011;34088;52.232;5.196;2022-11-15T04:56:17;89.20;;;41.40;;
48268;SDS011;34088;52.232;5.196;2022-11-15T04:58:43;90.28;;;40.75;;
48268;SDS011;34088;52.232;5.196;2022-11-15T05:01:12;86.35;;;41.65;;
48268;SDS011;34088;52.232;5.196;2022-11-15T05:03:39;86.63;;;39.75;;
48268;SDS011;34088;52.232;5.196;2022-11-15T05:06:25;80.18;;;39.40;;
48268;SDS011;34088;52.232;5.196;2022-11-15T05:08:50;78.70;;;38.55;;
48268;SDS011;34088;52.232;5.196;2022-11-15T05:11:16;82.68;;;39.40;;
48268;SDS011;34088;52.232;5.196;2022-11-15T05:13:42;77.18;;;38.33;;
48268;SDS011;34088;52.232;5.196;2022-11-15T05:16:08;74.25;;;37.55;;
48268;SDS011;34088;52.232;5.196;2022-11-15T05:18:34;73.95;;;37.58;;
48268;SDS011;34088;52.232;5.196;2022-11-15T05:21:06;78.22;;;39.28;;
48268;SDS011;34088;52.232;5.196;2022-11-15T05:23:38;77.55;;;38.65;;
48268;SDS011;34088;52.232;5.196;2022-11-15T05:26:04;83.05;;;37.70;;
48268;SDS011;34088;52.232;5.196;2022-11-15T05:28:31;75.47;;;36.97;;
48268;SDS011;34088;52.232;5.196;2022-11-15T05:31:04;75.93;;;36.55;;
48268;SDS011;34088;52.232;5.196;2022-11-15T05:33:39;72.78;;;37.20;;
48268;SDS011;34088;52.232;5.196;2022-11-15T05:36:16;69.45;;;35.10;;
48268;SDS011;34088;52.232;5.196;2022-11-15T05:38:43;71.20;;;34.92;;
48268;SDS011;34088;52.232;5.196;2022-11-15T05:41:10;61.03;;;32.80;;
48268;SDS011;34088;52.232;5.196;2022-11-15T05:43:37;64.65;;;34.38;;
48268;SDS011;34088;52.232;5.196;2022-11-15T05:46:04;62.10;;;33.03;;
48268;SDS011;34088;52.232;5.196;2022-11-15T05:48:30;58.50;;;33.00;;
48268;SDS011;34088;52.232;5.196;2022-11-15T05:50:57;62.13;;;34.10;;
48268;SDS011;34088;52.232;5.196;2022-11-15T05:53:24;63.30;;;34.30;;
48268;SDS011;34088;52.232;5.196;2022-11-15T05:55:50;59.53;;;32.72;;
48268;SDS011;34088;52.232;5.196;2022-11-15T05:58:16;63.72;;;32.65;;
48268;SDS011;34088;52.232;5.196;2022-11-15T06:00:43;75.07;;;35.67;;
48268;SDS011;34088;52.232;5.196;2022-11-15T06:03:09;58.17;;;33.90;;
48268;SDS011;34088;52.232;5.196;2022-11-15T06:05:35;62.75;;;35.40;;
48268;SDS011;34088;52.232;5.196;2022-11-15T06:08:01;56.65;;;32.60;;
48268;SDS011;34088;52.232;5.196;2022-11-15T06:10:26;57.60;;;33.05;;
48268;SDS011;34088;52.232;5.196;2022-11-15T06:12:58;57.88;;;31.15;;
48268;SDS011;34088;52.232;5.196;2022-11-15T06:15:25;58.97;;;32.42;;
48268;SDS011;34088;52.232;5.196;2022-11-15T06:17:50;57.60;;;32.10;;
48268;SDS011;34088;52.232;5.196;2022-11-15T06:20:16;58.95;;;31.73;;
48268;SDS011;34088;52.232;5.196;2022-11-15T06:22:42;53.88;;;30.77;;
48268;SDS011;34088;52.232;5.196;2022-11-15T06:25:08;58.13;;;31.23;;
48268;SDS011;34088;52.232;5.196;2022-11-15T06:27:34;57.38;;;34.17;;
48268;SDS011;34088;52.232;5.196;2022-11-15T06:30:00;55.25;;;32.10;;
48268;SDS011;34088;52.232;5.196;2022-11-15T06:32:26;54.08;;;31.13;;
48268;SDS011;34088;52.232;5.196;2022-11-15T06:34:51;48.97;;;30.67;;
48268;SDS011;34088;52.232;5.196;2022-11-15T06:37:17;58.25;;;34.13;;
48268;SDS011;34088;52.232;5.196;2022-11-15T06:39:43;54.50;;;31.50;;
48268;SDS011;34088;52.232;5.196;2022-11-15T06:42:08;64.03;;;32.72;;
48268;SDS011;34088;52.232;5.196;2022-11-15T06:44:34;57.83;;;31.58;;
48268;SDS011;34088;52.232;5.196;2022-11-15T06:47:00;58.75;;;32.45;;
48268;SDS011;34088;52.232;5.196;2022-11-15T06:49:25;54.92;;;31.63;;
48268;SDS011;34088;52.232;5.196;2022-11-15T06:51:51;60.42;;;33.28;;
48268;SDS011;34088;52.232;5.196;2022-11-15T06:54:17;59.40;;;33.20;;
48268;SDS011;34088;52.232;5.196;2022-11-15T06:56:43;56.70;;;32.53;;
48268;SDS011;34088;52.232;5.196;2022-11-15T06:59:08;55.13;;;30.55;;
48268;SDS011;34088;52.232;5.196;2022-11-15T07:01:34;52.15;;;30.65;;
48268;SDS011;34088;52.232;5.196;2022-11-15T07:04:00;51.92;;;30.83;;
48268;SDS011;34088;52.232;5.196;2022-11-15T07:06:25;56.92;;;31.98;;
48268;SDS011;34088;52.232;5.196;2022-11-15T07:08:51;52.78;;;30.42;;
48268;SDS011;34088;52.232;5.196;2022-11-15T07:11:17;59.50;;;33.47;;
48268;SDS011;34088;52.232;5.196;2022-11-15T07:13:43;53.30;;;31.08;;
48268;SDS011;34088;52.232;5.196;2022-11-15T07:16:09;50.08;;;30.88;;
48268;SDS011;34088;52.232;5.196;2022-11-15T07:18:36;53.78;;;31.45;;
48268;SDS011;34088;52.232;5.196;2022-11-15T07:21:04;55.05;;;30.63;;
48268;SDS011;34088;52.232;5.196;2022-11-15T07:23:31;48.80;;;29.92;;
48268;SDS011;34088;52.232;5.196;2022-11-15T07:25:58;53.90;;;30.25;;
48268;SDS011;34088;52.232;5.196;2022-11-15T07:28:26;54.53;;;30.48;;
48268;SDS011;34088;52.232;5.196;2022-11-15T07:30:52;53.20;;;30.98;;
48268;SDS011;34088;52.232;5.196;2022-11-15T07:33:18;48.47;;;28.10;;
48268;SDS011;34088;52.232;5.196;2022-11-15T07:35:44;54.30;;;29.33;;
48268;SDS011;34088;52.232;5.196;2022-11-15T07:38:13;51.45;;;28.65;;
48268;SDS011;34088;52.232;5.196;2022-11-15T07:40:39;48.22;;;28.25;;
48268;SDS011;34088;52.232;5.196;2022-11-15T07:43:06;50.88;;;27.58;;
48268;SDS011;34088;52.232;5.196;2022-11-15T07:45:33;43.67;;;27.10;;
48268;SDS011;34088;52.232;5.196;2022-11-15T07:47:59;47.72;;;28.30;;
48268;SDS011;34088;52.232;5.196;2022-11-15T07:50:26;46.13;;;27.63;;
48268;SDS011;34088;52.232;5.196;2022-11-15T07:52:56;46.15;;;27.00;;
48268;SDS011;34088;52.232;5.196;2022-11-15T07:55:23;46.15;;;27.30;;
48268;SDS011;34088;52.232;5.196;2022-11-15T07:57:49;50.75;;;27.40;;
48268;SDS011;34088;52.232;5.196;2022-11-15T08:00:15;46.15;;;26.13;;
48268;SDS011;34088;52.232;5.196;2022-11-15T08:02:42;46.15;;;25.75;;
48268;SDS011;34088;52.232;5.196;2022-11-15T08:05:08;47.70;;;26.95;;
48268;SDS011;34088;52.232;5.196;2022-11-15T08:07:34;43.53;;;25.77;;
48268;SDS011;34088;52.232;5.196;2022-11-15T08:09:59;45.72;;;25.52;;
48268;SDS011;34088;52.232;5.196;2022-11-15T08:12:26;42.13;;;25.63;;
48268;SDS011;34088;52.232;5.196;2022-11-15T08:14:53;42.90;;;24.20;;
48268;SDS011;34088;52.232;5.196;2022-11-15T08:17:21;41.17;;;24.40;;
48268;SDS011;34088;52.232;5.196;2022-11-15T08:19:50;46.95;;;25.75;;
48268;SDS011;34088;52.232;5.196;2022-11-15T08:22:16;36.63;;;24.52;;
48268;SDS011;34088;52.232;5.196;2022-11-15T08:24:43;42.67;;;23.45;;
48268;SDS011;34088;52.232;5.196;2022-11-15T08:27:09;44.55;;;23.75;;
48268;SDS011;34088;52.232;5.196;2022-11-15T08:29:43;38.00;;;23.77;;
48268;SDS011;34088;52.232;5.196;2022-11-15T08:32:09;36.30;;;22.02;;
48268;SDS011;34088;52.232;5.196;2022-11-15T08:34:36;38.72;;;22.42;;
48268;SDS011;34088;52.232;5.196;2022-11-15T08:37:03;33.97;;;21.58;;
48268;SDS011;34088;52.232;5.196;2022-11-15T08:39:29;38.83;;;22.42;;
48268;SDS011;34088;52.232;5.196;2022-11-15T08:41:54;33.83;;;21.20;;
48268;SDS011;34088;52.232;5.196;2022-11-15T08:44:20;37.00;;;21.33;;
48268;SDS011;34088;52.232;5.196;2022-11-15T08:46:46;32.92;;;20.67;;
48268;SDS011;34088;52.232;5.196;2022-11-15T08:49:12;40.17;;;22.85;;
48268;SDS011;34088;52.232;5.196;2022-11-15T08:51:37;35.95;;;20.02;;
48268;SDS011;34088;52.232;5.196;2022-11-15T08:54:03;32.70;;;18.58;;
48268;SDS011;34088;52.232;5.196;2022-11-15T08:56:29;29.80;;;18.35;;
48268;SDS011;34088;52.232;5.196;2022-11-15T08:58:55;28.45;;;18.63;;
48268;SDS011;34088;52.232;5.196;2022-11-15T09:01:21;30.92;;;19.25;;
48268;SDS011;34088;52.232;5.196;2022-11-15T09:03:47;30.92;;;17.70;;
48268;SDS011;34088;52.232;5.196;2022-11-15T09:06:13;31.17;;;18.45;;
48268;SDS011;34088;52.232;5.196;2022-11-15T09:08:39;25.33;;;16.48;;
48268;SDS011;34088;52.232;5.196;2022-11-15T09:11:06;26.05;;;15.88;;
48268;SDS011;34088;52.232;5.196;2022-11-15T09:13:34;30.45;;;17.85;;
48268;SDS011;34088;52.232;5.196;2022-11-15T09:16:02;26.58;;;16.23;;
48268;SDS011;34088;52.232;5.196;2022-11-15T09:18:28;24.42;;;14.30;;
48268;SDS011;34088;52.232;5.196;2022-11-15T09:20:57;23.27;;;13.35;;
48268;SDS011;34088;52.232;5.196;2022-11-15T09:23:24;23.52;;;13.43;;
48268;SDS011;34088;52.232;5.196;2022-11-15T09:25:50;23.85;;;12.73;;
48268;SDS011;34088;52.232;5.196;2022-11-15T09:28:16;22.20;;;12.70;;
48268;SDS011;34088;52.232;5.196;2022-11-15T09:30:42;22.48;;;12.15;;
48268;SDS011;34088;52.232;5.196;2022-11-15T09:33:08;19.02;;;12.38;;
48268;SDS011;34088;52.232;5.196;2022-11-15T09:35:35;19.92;;;12.02;;
48268;SDS011;34088;52.232;5.196;2022-11-15T09:38:01;26.90;;;12.57;;
48268;SDS011;34088;52.232;5.196;2022-11-15T09:40:29;20.63;;;12.23;;
48268;SDS011;34088;52.232;5.196;2022-11-15T09:48:23;17.00;;;10.73;;
48268;SDS011;34088;52.232;5.196;2022-11-15T09:50:57;19.67;;;10.73;;
48268;SDS011;34088;52.232;5.196;2022-11-15T09:53:26;16.92;;;11.18;;
48268;SDS011;34088;52.232;5.196;2022-11-15T09:56:03;16.60;;;11.20;;
48268;SDS011;34088;52.232;5.196;2022-11-15T09:58:40;19.90;;;11.55;;
48268;SDS011;34088;52.232;5.196;2022-11-15T10:04:31;17.95;;;10.23;;
48268;SDS011;34088;52.232;5.196;2022-11-15T10:07:02;18.48;;;10.38;;
48268;SDS011;34088;52.232;5.196;2022-11-15T10:09:53;19.05;;;10.02;;
48268;SDS011;34088;52.232;5.196;2022-11-15T10:12:48;15.73;;;9.00;;
48268;SDS011;34088;52.232;5.196;2022-11-15T10:15:16;14.05;;;7.72;;
48268;SDS011;34088;52.232;5.196;2022-11-15T10:21:00;12.55;;;8.45;;
48268;SDS011;34088;52.232;5.196;2022-11-15T10:23:40;10.70;;;7.38;;
48268;SDS011;34088;52.232;5.196;2022-11-15T10:26:07;12.50;;;7.32;;
48268;SDS011;34088;52.232;5.196;2022-11-15T10:28:36;10.98;;;6.53;;
48268;SDS011;34088;52.232;5.196;2022-11-15T10:31:02;14.65;;;7.55;;
48268;SDS011;34088;52.232;5.196;2022-11-15T10:38:51;13.70;;;6.47;;
48268;SDS011;34088;52.232;5.196;2022-11-15T10:46:41;11.63;;;6.90;;
48268;SDS011;34088;52.232;5.196;2022-11-15T10:49:12;12.48;;;7.32;;
48268;SDS011;34088;52.232;5.196;2022-11-15T10:51:43;12.40;;;6.55;;
48268;SDS011;34088;52.232;5.196;2022-11-15T10:54:14;10.23;;;6.90;;
48268;SDS011;34088;52.232;5.196;2022-11-15T10:56:54;13.35;;;6.68;;
48268;SDS011;34088;52.232;5.196;2022-11-15T10:59:24;9.38;;;6.60;;
48268;SDS011;34088;52.232;5.196;2022-11-15T11:01:53;10.32;;;6.70;;
48268;SDS011;34088;52.232;5.196;2022-11-15T11:04:20;10.73;;;6.10;;
48268;SDS011;34088;52.232;5.196;2022-11-15T11:09:34;11.40;;;5.88;;
48268;SDS011;34088;52.232;5.196;2022-11-15T11:12:04;8.77;;;6.03;;
48268;SDS011;34088;52.232;5.196;2022-11-15T11:14:35;11.05;;;5.45;;
48268;SDS011;34088;52.232;5.196;2022-11-15T11:20:25;8.85;;;5.05;;
48268;SDS011;34088;52.232;5.196;2022-11-15T11:28:57;8.50;;;4.50;;
48268;SDS011;34088;52.232;5.196;2022-11-15T11:37:11;5.25;;;3.25;;
48268;SDS011;34088;52.232;5.196;2022-11-15T11:54:50;6.93;;;2.78;;
48268;SDS011;34088;52.232;5.196;2022-11-15T12:00:23;8.38;;;2.42;;
48268;SDS011;34088;52.232;5.196;2022-11-15T12:05:39;5.93;;;2.55;;
48268;SDS011;34088;52.232;5.196;2022-11-15T12:11:03;8.50;;;2.40;;
48268;SDS011;34088;52.232;5.196;2022-11-15T12:13:59;9.20;;;2.20;;
48268;SDS011;34088;52.232;5.196;2022-11-15T12:16:29;6.18;;;2.10;;
48268;SDS011;34088;52.232;5.196;2022-11-15T12:18:58;7.40;;;2.50;;
48268;SDS011;34088;52.232;5.196;2022-11-15T12:24:11;8.13;;;2.00;;
48268;SDS011;34088;52.232;5.196;2022-11-15T12:27:08;8.45;;;2.00;;
48268;SDS011;34088;52.232;5.196;2022-11-15T12:30:23;6.45;;;1.88;;
48268;SDS011;34088;52.232;5.196;2022-11-15T12:32:57;6.75;;;1.90;;
48268;SDS011;34088;52.232;5.196;2022-11-15T12:37:57;6.13;;;1.80;;
48268;SDS011;34088;52.232;5.196;2022-11-15T12:43:01;6.10;;;1.88;;
48268;SDS011;34088;52.232;5.196;2022-11-15T12:45:38;5.22;;;1.58;;
48268;SDS011;34088;52.232;5.196;2022-11-15T13:01:57;7.05;;;1.90;;
48268;SDS011;34088;52.232;5.196;2022-11-15T13:04:21;8.50;;;1.73;;
48268;SDS011;34088;52.232;5.196;2022-11-15T13:14:42;5.15;;;1.50;;
48268;SDS011;34088;52.232;5.196;2022-11-15T13:19:45;7.75;;;2.10;;
48268;SDS011;34088;52.232;5.196;2022-11-15T13:28:01;6.25;;;1.75;;
48268;SDS011;34088;52.232;5.196;2022-11-15T13:30:35;7.05;;;1.88;;
48268;SDS011;34088;52.232;5.196;2022-11-15T13:33:08;5.28;;;1.70;;
48268;SDS011;34088;52.232;5.196;2022-11-15T13:35:42;4.53;;;1.70;;
48268;SDS011;34088;52.232;5.196;2022-11-15T13:38:25;4.03;;;1.42;;
48268;SDS011;34088;52.232;5.196;2022-11-15T13:40:54;6.60;;;2.25;;
48268;SDS011;34088;52.232;5.196;2022-11-15T13:48:55;5.65;;;1.85;;
48268;SDS011;34088;52.232;5.196;2022-11-15T13:57:09;5.15;;;1.98;;
48268;SDS011;34088;52.232;5.196;2022-11-15T13:59:52;6.45;;;1.85;;
48268;SDS011;34088;52.232;5.196;2022-11-15T14:02:27;7.47;;;2.20;;
48268;SDS011;34088;52.232;5.196;2022-11-15T14:07:52;6.65;;;2.40;;
48268;SDS011;34088;52.232;5.196;2022-11-15T14:10:25;7.95;;;2.30;;
48268;SDS011;34088;52.232;5.196;2022-11-15T14:12:57;8.52;;;2.25;;
48268;SDS011;34088;52.232;5.196;2022-11-15T14:17:58;8.70;;;3.03;;
48268;SDS011;34088;52.232;5.196;2022-11-15T14:22:54;9.10;;;3.67;;
48268;SDS011;34088;52.232;5.196;2022-11-15T14:25:23;6.47;;;2.53;;
48268;SDS011;34088;52.232;5.196;2022-11-15T14:30:47;5.73;;;2.17;;
48268;SDS011;34088;52.232;5.196;2022-11-15T14:33:48;6.55;;;2.50;;
48268;SDS011;34088;52.232;5.196;2022-11-15T14:36:11;5.78;;;2.65;;
48268;SDS011;34088;52.232;5.196;2022-11-15T14:38:39;8.55;;;3.97;;
48268;SDS011;34088;52.232;5.196;2022-11-15T14:41:05;5.15;;;2.70;;
48268;SDS011;34088;52.232;5.196;2022-11-15T14:43:36;8.48;;;2.53;;
48268;SDS011;34088;52.232;5.196;2022-11-15T14:46:02;5.43;;;2.10;;
48268;SDS011;34088;52.232;5.196;2022-11-15T14:48:27;9.15;;;2.90;;
48268;SDS011;34088;52.232;5.196;2022-11-15T14:50:53;10.27;;;3.58;;
48268;SDS011;34088;52.232;5.196;2022-11-15T14:53:19;8.02;;;2.80;;
48268;SDS011;34088;52.232;5.196;2022-11-15T14:55:45;12.13;;;5.10;;
48268;SDS011;34088;52.232;5.196;2022-11-15T14:58:11;4.28;;;2.35;;
48268;SDS011;34088;52.232;5.196;2022-11-15T15:00:37;5.15;;;2.08;;
48268;SDS011;34088;52.232;5.196;2022-11-15T15:03:05;5.97;;;2.10;;
48268;SDS011;34088;52.232;5.196;2022-11-15T15:05:32;6.15;;;2.08;;
48268;SDS011;34088;52.232;5.196;2022-11-15T15:08:06;6.55;;;2.10;;
48268;SDS011;34088;52.232;5.196;2022-11-15T15:10:33;6.32;;;2.20;;
48268;SDS011;34088;52.232;5.196;2022-11-15T15:13:02;9.43;;;2.08;;
48268;SDS011;34088;52.232;5.196;2022-11-15T15:15:34;8.18;;;2.53;;
48268;SDS011;34088;52.232;5.196;2022-11-15T15:18:02;5.07;;;2.15;;
48268;SDS011;34088;52.232;5.196;2022-11-15T15:20:29;6.88;;;2.00;;
48268;SDS011;34088;52.232;5.196;2022-11-15T15:22:58;5.00;;;2.55;;
48268;SDS011;34088;52.232;5.196;2022-11-15T15:25:27;5.40;;;2.42;;
48268;SDS011;34088;52.232;5.196;2022-11-15T15:27:59;5.85;;;2.10;;
48268;SDS011;34088;52.232;5.196;2022-11-15T15:30:28;7.93;;;3.63;;
48268;SDS011;34088;52.232;5.196;2022-11-15T15:32:55;8.40;;;2.60;;
48268;SDS011;34088;52.232;5.196;2022-11-15T15:35:20;7.15;;;2.65;;
48268;SDS011;34088;52.232;5.196;2022-11-15T15:37:47;12.50;;;8.18;;
48268;SDS011;34088;52.232;5.196;2022-11-15T15:40:18;6.25;;;2.78;;
48268;SDS011;34088;52.232;5.196;2022-11-15T15:42:46;3.95;;;1.90;;
48268;SDS011;34088;52.232;5.196;2022-11-15T15:45:13;6.22;;;2.42;;
48268;SDS011;34088;52.232;5.196;2022-11-15T15:47:40;4.38;;;2.00;;
48268;SDS011;34088;52.232;5.196;2022-11-15T15:50:25;5.20;;;2.10;;
48268;SDS011;34088;52.232;5.196;2022-11-15T15:55:23;5.28;;;1.95;;
48268;SDS011;34088;52.232;5.196;2022-11-15T15:57:49;7.75;;;2.70;;
48268;SDS011;34088;52.232;5.196;2022-11-15T16:00:16;6.93;;;2.10;;
48268;SDS011;34088;52.232;5.196;2022-11-15T16:02:43;5.60;;;2.17;;
48268;SDS011;34088;52.232;5.196;2022-11-15T16:05:09;4.63;;;2.28;;
48268;SDS011;34088;52.232;5.196;2022-11-15T16:07:36;6.28;;;2.20;;
48268;SDS011;34088;52.232;5.196;2022-11-15T16:10:12;3.83;;;1.83;;
48268;SDS011;34088;52.232;5.196;2022-11-15T16:12:51;5.03;;;1.98;;
48268;SDS011;34088;52.232;5.196;2022-11-15T16:15:19;5.05;;;2.10;;
48268;SDS011;34088;52.232;5.196;2022-11-15T16:17:52;5.82;;;1.95;;
48268;SDS011;34088;52.232;5.196;2022-11-15T16:23:13;5.75;;;2.65;;
48268;SDS011;34088;52.232;5.196;2022-11-15T16:25:41;6.68;;;2.83;;
48268;SDS011;34088;52.232;5.196;2022-11-15T16:28:20;9.30;;;3.70;;
48268;SDS011;34088;52.232;5.196;2022-11-15T16:31:10;6.00;;;2.42;;
48268;SDS011;34088;52.232;5.196;2022-11-15T16:33:37;6.97;;;2.83;;
48268;SDS011;34088;52.232;5.196;2022-11-15T16:36:04;5.93;;;2.80;;
48268;SDS011;34088;52.232;5.196;2022-11-15T16:38:43;6.07;;;2.65;;
48268;SDS011;34088;52.232;5.196;2022-11-15T16:41:09;5.68;;;2.50;;
48268;SDS011;34088;52.232;5.196;2022-11-15T16:43:35;7.05;;;2.80;;
48268;SDS011;34088;52.232;5.196;2022-11-15T16:46:05;7.40;;;2.90;;
48268;SDS011;34088;52.232;5.196;2022-11-15T16:48:37;8.52;;;3.60;;
48268;SDS011;34088;52.232;5.196;2022-11-15T16:51:04;7.00;;;2.85;;
48268;SDS011;34088;52.232;5.196;2022-11-15T16:53:30;9.02;;;3.85;;
48268;SDS011;34088;52.232;5.196;2022-11-15T16:55:56;7.63;;;4.03;;
48268;SDS011;34088;52.232;5.196;2022-11-15T16:58:21;10.18;;;4.07;;
48268;SDS011;34088;52.232;5.196;2022-11-15T17:00:51;6.55;;;2.63;;
48268;SDS011;34088;52.232;5.196;2022-11-15T17:03:18;8.77;;;2.38;;
48268;SDS011;34088;52.232;5.196;2022-11-15T17:05:44;5.97;;;2.60;;
48268;SDS011;34088;52.232;5.196;2022-11-15T17:08:09;8.70;;;2.80;;
48268;SDS011;34088;52.232;5.196;2022-11-15T17:10:37;6.25;;;2.55;;
48268;SDS011;34088;52.232;5.196;2022-11-15T17:13:05;8.43;;;3.15;;
48268;SDS011;34088;52.232;5.196;2022-11-15T17:15:32;5.43;;;2.50;;
48268;SDS011;34088;52.232;5.196;2022-11-15T17:17:57;7.10;;;3.40;;
48268;SDS011;34088;52.232;5.196;2022-11-15T17:20:24;4.85;;;3.42;;
48268;SDS011;34088;52.232;5.196;2022-11-15T17:22:50;6.75;;;3.20;;
48268;SDS011;34088;52.232;5.196;2022-11-15T17:25:16;6.68;;;3.03;;
48268;SDS011;34088;52.232;5.196;2022-11-15T17:27:42;8.85;;;3.17;;
48268;SDS011;34088;52.232;5.196;2022-11-15T17:30:09;7.00;;;4.60;;
48268;SDS011;34088;52.232;5.196;2022-11-15T17:32:39;9.45;;;5.72;;
48268;SDS011;34088;52.232;5.196;2022-11-15T17:35:05;9.45;;;5.03;;
48268;SDS011;34088;52.232;5.196;2022-11-15T17:37:32;5.45;;;3.13;;
48268;SDS011;34088;52.232;5.196;2022-11-15T17:39:58;5.28;;;3.47;;
48268;SDS011;34088;52.232;5.196;2022-11-15T17:42:24;5.38;;;2.80;;
48268;SDS011;34088;52.232;5.196;2022-11-15T17:44:49;5.40;;;2.80;;
48268;SDS011;34088;52.232;5.196;2022-11-15T17:47:15;7.50;;;2.80;;
48268;SDS011;34088;52.232;5.196;2022-11-15T17:49:41;6.32;;;3.10;;